Time;durP1;ratioP1;P1;durP2;ratioP2;P2;SDS_P1;SDS_P2;PMS_P1;PMS_P2;Temp;Humidity;BMP_temperature;BMP_pressure;BME280_temperature;BME280_humidity;BME280_pressure;Samples;Min_cycle;Max_cycle;Signal;HPM_P1;HPM_P2
2023/12/30 00:01:57;;;;;;;3.27;0.40;;;6.30;99.90;;;;;;5094603;28;20426;-56
2023/12/30 00:04:22;;;;;;;5.17;1.07;;;6.30;99.90;;;;;;5095396;28;20449;-57
2023/12/30 00:06:48;;;;;;;2.53;0.60;;;6.30;99.90;;;;;;5095212;28;20465;-57
2023/12/30 00:09:14;;;;;;;7.93;0.87;;;6.30;99.90;;;;;;5095134;28;20090;-56
2023/12/30 00:11:40;;;;;;;2.60;0.40;;;6.30;99.90;;;;;;5095283;28;20074;-56
2023/12/30 00:14:05;;;;;;;3.57;0.60;;;6.30;99.90;;;;;;5095636;28;20040;-56
2023/12/30 00:16:31;;;;;;;3.60;0.70;;;6.30;99.90;;;;;;5095188;28;20127;-57
2023/12/30 00:18:57;;;;;;;2.33;0.40;;;6.30;99.90;;;;;;5094164;28;20059;-56
2023/12/30 00:21:23;;;;;;;5.87;0.63;;;6.30;99.90;;;;;;5095162;28;20047;-56
2023/12/30 00:23:49;;;;;;;3.22;0.43;;;6.30;99.90;;;;;;5094974;28;20044;-56
2023/12/30 00:26:25;;;;;;;3.05;0.50;;;6.30;99.90;;;;;;5094180;28;20051;-56
2023/12/30 00:28:52;;;;;;;5.82;0.88;;;6.40;99.90;;;;;;5094827;28;20099;-55
2023/12/30 00:31:25;;;;;;;6.43;1.20;;;6.40;99.90;;;;;;5094872;28;20055;-57
2023/12/30 00:34:01;;;;;;;4.03;0.60;;;6.40;99.90;;;;;;5094012;28;20048;-57
2023/12/30 00:36:28;;;;;;;3.47;0.65;;;6.40;99.90;;;;;;5094852;28;20388;-56
2023/12/30 00:38:54;;;;;;;8.48;0.50;;;6.40;99.90;;;;;;5094690;28;20365;-56
2023/12/30 00:41:23;;;;;;;6.20;0.63;;;6.50;99.90;;;;;;5095244;28;20113;-56
2023/12/30 00:43:49;;;;;;;3.55;0.90;;;6.40;99.90;;;;;;5094668;28;20449;-56
2023/12/30 00:46:16;;;;;;;8.13;0.67;;;6.40;99.90;;;;;;5094480;28;20044;-56
2023/12/30 00:48:42;;;;;;;4.00;0.55;;;6.40;99.90;;;;;;5094427;28;20047;-57
2023/12/30 00:51:07;;;;;;;6.23;0.60;;;6.40;99.90;;;;;;5094315;28;20043;-56
2023/12/30 00:53:33;;;;;;;4.70;0.90;;;6.40;99.90;;;;;;5093717;28;20544;-58
2023/12/30 00:55:58;;;;;;;3.73;0.73;;;6.40;99.90;;;;;;5094390;28;20533;-57
2023/12/30 00:58:24;;;;;;;3.63;0.47;;;6.40;99.90;;;;;;5094556;28;20448;-57
2023/12/30 01:00:51;;;;;;;3.42;0.80;;;6.40;99.90;;;;;;5094430;28;20044;-57
2023/12/30 01:03:17;;;;;;;3.65;0.50;;;6.50;99.90;;;;;;5094035;28;20515;-57
2023/12/30 01:05:44;;;;;;;2.80;0.50;;;6.50;99.90;;;;;;5094236;28;20059;-57
2023/12/30 01:08:10;;;;;;;4.50;0.60;;;6.50;99.90;;;;;;5094289;28;20396;-57
2023/12/30 01:10:36;;;;;;;6.37;0.63;;;6.50;99.90;;;;;;5094181;28;20140;-58
2023/12/30 01:13:03;;;;;;;3.67;0.60;;;6.40;99.90;;;;;;5094080;28;20052;-58
2023/12/30 01:15:29;;;;;;;4.28;0.70;;;6.40;99.90;;;;;;5094238;28;20131;-58
2023/12/30 01:17:54;;;;;;;3.77;0.80;;;6.40;99.90;;;;;;5093899;28;20071;-59
2023/12/30 01:20:20;;;;;;;5.93;1.17;;;6.40;99.90;;;;;;5094135;28;20044;-59
2023/12/30 01:22:46;;;;;;;1.70;0.50;;;6.40;99.90;;;;;;5093957;28;20051;-60
2023/12/30 01:25:11;;;;;;;5.00;0.90;;;6.40;99.90;;;;;;5094029;28;20117;-58
2023/12/30 01:27:37;;;;;;;5.83;0.67;;;6.40;99.90;;;;;;5093724;28;20145;-57
2023/12/30 01:30:03;;;;;;;4.13;0.60;;;6.40;99.90;;;;;;5093186;28;20055;-58
2023/12/30 01:32:29;;;;;;;3.35;0.63;;;6.40;99.90;;;;;;5093732;28;20051;-57
2023/12/30 01:34:55;;;;;;;3.40;0.70;;;6.40;99.90;;;;;;5092841;28;20048;-58
2023/12/30 01:37:21;;;;;;;4.38;0.70;;;6.40;99.90;;;;;;5093080;28;20086;-58
2023/12/30 01:39:46;;;;;;;5.67;0.90;;;6.40;99.90;;;;;;5093704;28;20508;-58
2023/12/30 01:42:12;;;;;;;4.57;0.80;;;6.40;99.90;;;;;;5094188;28;20051;-58
2023/12/30 01:44:38;;;;;;;6.43;0.63;;;6.50;99.90;;;;;;5093529;28;20051;-57
2023/12/30 01:47:05;;;;;;;4.23;0.63;;;6.50;99.90;;;;;;5093650;28;20044;-57
2023/12/30 01:49:30;;;;;;;;;;;6.50;99.90;;;;;;5093868;28;20044;-58
2023/12/30 01:51:57;;;;;;;3.45;0.47;;;6.50;99.90;;;;;;5093659;28;19973;-58
2023/12/30 01:54:23;;;;;;;;;;;6.50;99.90;;;;;;5094158;28;20487;-59
2023/12/30 01:56:49;;;;;;;3.55;0.50;;;6.50;99.90;;;;;;5092636;28;19941;-58
2023/12/30 01:59:17;;;;;;;2.90;0.52;;;6.50;99.90;;;;;;5093572;28;20050;-58
2023/12/30 02:01:44;;;;;;;6.90;0.80;;;6.50;99.90;;;;;;5093599;28;20040;-57
2023/12/30 02:04:10;;;;;;;;;;;6.50;99.90;;;;;;5094155;28;20094;-58
2023/12/30 02:06:36;;;;;;;7.53;0.77;;;6.50;99.90;;;;;;5093563;28;19927;-58
2023/12/30 02:09:02;;;;;;;3.00;0.40;;;6.60;99.90;;;;;;5096759;28;20048;-58
2023/12/30 02:11:28;;;;;;;5.77;0.70;;;6.60;99.90;;;;;;5097862;28;20135;-58
2023/12/30 02:13:54;;;;;;;5.80;1.85;;;6.60;99.90;;;;;;5097750;28;20048;-58
2023/12/30 02:16:19;;;;;;;8.80;0.80;;;6.70;99.90;;;;;;5097565;28;20074;-58
2023/12/30 02:18:45;;;;;;;7.23;1.17;;;6.70;99.90;;;;;;5098031;28;20156;-58
2023/12/30 02:21:10;;;;;;;4.90;0.80;;;6.70;99.90;;;;;;5097520;28;20161;-58
2023/12/30 02:23:36;;;;;;;2.70;0.37;;;6.70;99.90;;;;;;5097392;28;20055;-58
2023/12/30 02:26:02;;;;;;;4.90;0.50;;;6.70;99.90;;;;;;5097437;28;20075;-58
2023/12/30 02:28:28;;;;;;;4.57;0.90;;;6.80;99.90;;;;;;5097230;28;20125;-58
2023/12/30 02:30:53;;;;;;;5.70;1.10;;;6.70;99.90;;;;;;5097184;28;20056;-58
2023/12/30 02:33:19;;;;;;;5.47;0.83;;;6.80;99.90;;;;;;5096199;28;20116;-58
2023/12/30 02:35:45;;;;;;;3.67;0.53;;;6.70;99.90;;;;;;5097184;28;20063;-57
2023/12/30 02:38:10;;;;;;;7.00;0.70;;;6.70;99.90;;;;;;5097261;28;20047;-58
2023/12/30 02:40:36;;;;;;;5.00;0.50;;;6.80;99.90;;;;;;5096049;28;20039;-58
2023/12/30 02:43:02;;;;;;;6.97;0.90;;;6.80;99.90;;;;;;5097020;28;20039;-58
2023/12/30 02:45:27;;;;;;;5.53;0.63;;;6.80;99.90;;;;;;5097001;28;20055;-57
2023/12/30 02:47:53;;;;;;;4.73;0.70;;;6.90;99.90;;;;;;5096735;28;20036;-58
2023/12/30 02:50:18;;;;;;;5.17;0.80;;;6.80;99.90;;;;;;5097005;28;20105;-58
2023/12/30 02:52:44;;;;;;;4.73;0.63;;;6.90;99.90;;;;;;5096889;28;20457;-58
2023/12/30 02:55:10;;;;;;;3.87;0.60;;;6.90;99.90;;;;;;5096866;28;20044;-58
2023/12/30 02:57:35;;;;;;;5.07;0.83;;;6.90;99.90;;;;;;5096870;28;20105;-58
2023/12/30 03:00:01;;;;;;;4.30;0.70;;;6.90;99.90;;;;;;5096642;28;20055;-58
2023/12/30 03:02:27;;;;;;;4.85;0.70;;;6.90;99.90;;;;;;5096684;28;20090;-58
2023/12/30 03:04:53;;;;;;;5.27;0.50;;;6.90;99.90;;;;;;5097184;28;20044;-58
2023/12/30 03:07:18;;;;;;;2.67;0.43;;;6.90;99.90;;;;;;5096544;28;20083;-58
2023/12/30 03:09:44;;;;;;;8.37;0.73;;;6.90;99.90;;;;;;5096932;28;20048;-58
2023/12/30 03:12:10;;;;;;;4.87;1.07;;;6.90;99.90;;;;;;5096564;28;20055;-58
2023/12/30 03:14:36;;;;;;;6.40;0.70;;;7.00;99.90;;;;;;5096358;28;20048;-58
2023/12/30 03:17:02;;;;;;;7.00;1.20;;;7.00;99.90;;;;;;5095167;28;20372;-58
2023/12/30 03:19:28;;;;;;;5.13;0.77;;;7.00;99.90;;;;;;5096414;28;20195;-58
2023/12/30 03:21:54;;;;;;;6.37;0.93;;;7.00;99.90;;;;;;5096318;28;20278;-58
2023/12/30 03:24:20;;;;;;;2.85;0.43;;;7.10;99.90;;;;;;5095356;28;20514;-58
2023/12/30 03:26:46;;;;;;;5.45;0.68;;;7.10;99.90;;;;;;5096290;28;20193;-58
2023/12/30 03:29:11;;;;;;;6.27;0.80;;;7.10;99.90;;;;;;5096436;28;20535;-58
2023/12/30 03:31:37;;;;;;;4.60;1.17;;;7.10;99.90;;;;;;5095166;28;20483;-57
2023/12/30 03:34:03;;;;;;;4.97;0.40;;;7.10;99.90;;;;;;5096140;28;20055;-58
2023/12/30 03:36:28;;;;;;;9.87;1.20;;;7.10;99.90;;;;;;5096015;28;20051;-58
2023/12/30 03:38:54;;;;;;;10.30;0.77;;;7.10;99.90;;;;;;5096412;28;20479;-58
2023/12/30 03:41:20;;;;;;;3.10;0.50;;;7.10;99.90;;;;;;5095075;28;20454;-57
2023/12/30 03:43:47;;;;;;;4.60;0.68;;;7.10;99.90;;;;;;5095948;28;20047;-58
2023/12/30 03:46:13;;;;;;;3.65;0.60;;;7.10;99.90;;;;;;5095623;28;20048;-57
2023/12/30 03:48:38;;;;;;;4.90;0.87;;;7.20;99.90;;;;;;5095790;28;20109;-58
2023/12/30 03:51:05;;;;;;;4.63;0.80;;;7.10;99.90;;;;;;5095945;28;20440;-58
2023/12/30 03:53:32;;;;;;;5.43;0.57;;;7.10;99.90;;;;;;5095842;28;20040;-58
2023/12/30 03:55:58;;;;;;;4.60;0.68;;;7.10;99.90;;;;;;5094537;28;20126;-58
2023/12/30 03:58:24;;;;;;;4.45;0.60;;;7.10;99.90;;;;;;5094586;28;20052;-57
2023/12/30 04:00:49;;;;;;;5.13;1.10;;;7.10;99.90;;;;;;5096044;28;20348;-58
2023/12/30 04:03:15;;;;;;;4.87;0.50;;;7.10;99.90;;;;;;5095741;28;20469;-58
2023/12/30 04:05:41;;;;;;;4.60;0.57;;;7.10;99.90;;;;;;5095852;28;20395;-57
2023/12/30 04:08:07;;;;;;;7.27;0.90;;;7.10;99.90;;;;;;5095356;28;20075;-58
2023/12/30 04:10:32;;;;;;;5.87;0.87;;;7.10;99.90;;;;;;5095332;28;20285;-58
2023/12/30 04:12:58;;;;;;;4.73;0.70;;;7.10;99.90;;;;;;5095209;28;20055;-58
2023/12/30 04:15:24;;;;;;;8.43;0.70;;;7.10;99.90;;;;;;5095185;28;20050;-58
2023/12/30 04:17:49;;;;;;;7.10;1.40;;;7.10;99.90;;;;;;5095245;28;20177;-58
2023/12/30 04:20:15;;;;;;;4.83;0.60;;;7.10;99.90;;;;;;5095246;28;20097;-58
2023/12/30 04:22:41;;;;;;;5.53;0.90;;;7.10;99.90;;;;;;5095088;28;20051;-58
2023/12/30 04:25:06;;;;;;;3.97;0.87;;;7.10;99.90;;;;;;5095084;28;20040;-58
2023/12/30 04:27:32;;;;;;;8.80;0.90;;;7.10;99.90;;;;;;5094743;28;20044;-58
2023/12/30 04:29:58;;;;;;;3.67;0.70;;;7.10;99.90;;;;;;5094351;28;20116;-58
2023/12/30 04:32:26;;;;;;;6.20;1.23;;;7.10;99.90;;;;;;5095236;28;20040;-58
2023/12/30 04:34:52;;;;;;;5.40;0.88;;;7.00;99.90;;;;;;5095373;28;20055;-59
2023/12/30 04:37:19;;;;;;;8.40;1.67;;;7.00;99.90;;;;;;5094878;28;20479;-59
2023/12/30 04:39:45;;;;;;;3.80;0.57;;;7.00;99.90;;;;;;5094730;28;20134;-59
2023/12/30 04:42:11;;;;;;;6.23;0.90;;;7.00;99.90;;;;;;5094760;28;20139;-59
2023/12/30 04:44:38;;;;;;;4.88;0.60;;;7.00;99.90;;;;;;5094536;28;20090;-58
2023/12/30 04:47:04;;;;;;;6.25;1.02;;;7.00;99.90;;;;;;5094699;28;20051;-58
2023/12/30 04:49:29;;;;;;;2.75;1.13;;;7.10;99.90;;;;;;5094510;28;20514;-60
2023/12/30 04:51:55;;;;;;;3.37;0.70;;;7.00;99.90;;;;;;5094677;28;20077;-58
2023/12/30 04:54:21;;;;;;;7.90;1.67;;;7.10;99.90;;;;;;5094609;28;20075;-59
2023/12/30 04:56:46;;;;;;;3.53;0.60;;;7.10;99.90;;;;;;5094454;28;20052;-58
2023/12/30 04:59:12;;;;;;;4.70;0.60;;;7.10;99.90;;;;;;5094245;28;20399;-58
2023/12/30 05:01:38;;;;;;;7.47;1.00;;;7.10;99.90;;;;;;5094491;28;20523;-58
2023/12/30 05:04:04;;;;;;;7.73;1.10;;;7.10;99.90;;;;;;5094240;28;20039;-58
2023/12/30 05:06:30;;;;;;;5.93;0.80;;;7.10;99.90;;;;;;5094557;28;20048;-58
2023/12/30 05:08:58;;;;;;;4.10;1.00;;;7.20;99.90;;;;;;5094362;28;20052;-59
2023/12/30 05:11:24;;;;;;;7.35;0.60;;;7.10;99.90;;;;;;5094251;28;20499;-58
2023/12/30 05:13:49;;;;;;;5.20;0.90;;;7.10;99.90;;;;;;5094133;28;20105;-58
2023/12/30 05:16:15;;;;;;;7.90;1.27;;;7.10;99.90;;;;;;5094247;28;20047;-58
2023/12/30 05:18:41;;;;;;;10.50;0.97;;;7.10;99.90;;;;;;5094314;28;20386;-58
2023/12/30 05:21:14;;;;;;;10.02;1.08;;;7.10;99.90;;;;;;5094069;28;20449;-58
2023/12/30 05:23:41;;;;;;;4.43;1.02;;;7.10;99.90;;;;;;5094075;28;20075;-58
2023/12/30 05:26:07;;;;;;;;;;;7.10;99.90;;;;;;5094416;28;20048;-57
2023/12/30 05:28:33;;;;;;;3.17;0.50;;;7.10;99.90;;;;;;5093574;28;19981;-58
2023/12/30 05:30:59;;;;;;;6.72;1.00;;;7.10;99.90;;;;;;5093998;28;20052;-58
2023/12/30 05:33:24;;;;;;;13.90;1.45;;;7.10;99.90;;;;;;5093976;28;20083;-58
2023/12/30 05:35:51;;;;;;;5.47;0.90;;;7.10;99.90;;;;;;5093977;28;20075;-58
2023/12/30 05:38:16;;;;;;;6.20;0.60;;;7.10;99.90;;;;;;5093832;28;20098;-58
2023/12/30 05:40:42;;;;;;;10.77;1.27;;;7.10;99.90;;;;;;5093724;28;20036;-57
2023/12/30 05:43:08;;;;;;;7.37;1.10;;;7.20;99.90;;;;;;5093574;28;20048;-58
2023/12/30 05:45:34;;;;;;;5.67;0.77;;;7.10;99.90;;;;;;5093840;28;20044;-58
2023/12/30 05:48:01;;;;;;;4.53;0.70;;;7.10;99.90;;;;;;5093625;28;20074;-58
2023/12/30 05:50:27;;;;;;;5.53;1.10;;;7.20;99.90;;;;;;5093816;28;20044;-58
2023/12/30 05:52:53;;;;;;;4.65;0.63;;;7.10;99.90;;;;;;5093603;28;20051;-58
2023/12/30 05:55:19;;;;;;;7.05;1.65;;;7.10;99.90;;;;;;5092624;28;20048;-57
2023/12/30 05:57:46;;;;;;;8.87;1.03;;;7.10;99.90;;;;;;5093397;28;20040;-58
2023/12/30 06:00:12;;;;;;;6.57;1.25;;;7.10;99.90;;;;;;5094124;28;20055;-58
2023/12/30 06:02:38;;;;;;;7.65;1.13;;;7.10;99.90;;;;;;5093680;28;20094;-58
2023/12/30 06:05:04;;;;;;;3.40;0.70;;;7.10;99.90;;;;;;5092445;28;20079;-58
2023/12/30 06:07:30;;;;;;;6.38;1.00;;;7.00;99.90;;;;;;5093442;28;20381;-58
2023/12/30 06:09:55;;;;;;;5.20;0.60;;;7.00;99.90;;;;;;5093438;28;20050;-57
2023/12/30 06:12:21;;;;;;;3.43;0.80;;;7.00;99.90;;;;;;5093474;28;20083;-59
2023/12/30 06:14:47;;;;;;;7.47;1.23;;;7.00;99.90;;;;;;5093735;28;20467;-58
2023/12/30 06:17:12;;;;;;;5.53;1.40;;;7.00;99.90;;;;;;5093428;28;20372;-58
2023/12/30 06:19:38;;;;;;;6.27;0.73;;;7.00;99.90;;;;;;5093537;28;20480;-58
2023/12/30 06:22:04;;;;;;;5.80;0.93;;;7.00;99.90;;;;;;5093478;28;20464;-58
2023/12/30 06:24:30;;;;;;;5.97;0.57;;;7.00;99.90;;;;;;5093429;28;20052;-58
2023/12/30 06:26:56;;;;;;;9.30;1.53;;;7.00;99.90;;;;;;5093394;28;20044;-58
2023/12/30 06:29:21;;;;;;;4.73;0.80;;;7.00;99.90;;;;;;5093053;28;20052;-58
2023/12/30 06:31:47;;;;;;;4.70;1.03;;;7.00;99.90;;;;;;5093292;28;20105;-58
2023/12/30 06:34:13;;;;;;;6.03;1.33;;;7.00;99.90;;;;;;5093086;28;20083;-57
2023/12/30 06:36:41;;;;;;;6.00;0.70;;;7.00;99.90;;;;;;5093488;28;20044;-58
2023/12/30 06:39:08;;;;;;;4.43;1.00;;;7.00;99.90;;;;;;5093359;28;20083;-57
2023/12/30 06:41:34;;;;;;;;;;;7.00;99.90;;;;;;5093750;28;20044;-57
2023/12/30 06:43:59;;;;;;;6.72;0.80;;;7.00;99.90;;;;;;5093483;28;19920;-58
2023/12/30 06:46:25;;;;;;;5.63;0.77;;;7.00;99.90;;;;;;5093276;28;20088;-58
2023/12/30 06:48:51;;;;;;;7.30;1.13;;;7.00;99.90;;;;;;5093232;28;20067;-58
2023/12/30 06:51:16;;;;;;;4.30;0.70;;;7.00;99.90;;;;;;5093181;28;20074;-57
2023/12/30 06:53:42;;;;;;;7.17;0.90;;;7.00;99.90;;;;;;5092997;28;20044;-57
2023/12/30 06:56:08;;;;;;;5.00;0.60;;;7.00;99.90;;;;;;5096891;28;20084;-57
2023/12/30 06:58:34;;;;;;;5.17;0.60;;;7.00;99.90;;;;;;5095648;28;20129;-57
2023/12/30 07:01:00;;;;;;;4.45;0.63;;;7.00;99.90;;;;;;5096956;28;20051;-58
2023/12/30 07:03:26;;;;;;;5.23;0.90;;;7.00;99.90;;;;;;5096721;28;20047;-58
2023/12/30 07:05:52;;;;;;;6.68;0.70;;;7.00;99.90;;;;;;5096598;28;20552;-58
2023/12/30 07:08:18;;;;;;;5.37;0.90;;;7.00;99.90;;;;;;5096513;28;20048;-58
2023/12/30 07:10:43;;;;;;;8.63;0.60;;;7.00;99.90;;;;;;5096349;28;20091;-57
2023/12/30 07:13:09;;;;;;;6.77;0.90;;;7.00;99.90;;;;;;5096596;28;20052;-57
2023/12/30 07:15:35;;;;;;;4.53;0.60;;;7.00;99.90;;;;;;5096830;28;20514;-56
2023/12/30 07:18:01;;;;;;;6.27;0.70;;;7.00;99.90;;;;;;5096398;28;20036;-58
2023/12/30 07:20:27;;;;;;;3.78;1.08;;;7.00;99.90;;;;;;5096312;28;20501;-58
2023/12/30 07:22:53;;;;;;;6.07;1.17;;;7.00;99.90;;;;;;5096338;28;20044;-58
2023/12/30 07:25:19;;;;;;;11.25;1.35;;;6.90;99.90;;;;;;5096211;28;20092;-57
2023/12/30 07:27:45;;;;;;;8.90;1.10;;;7.00;99.90;;;;;;5096039;28;20052;-57
2023/12/30 07:30:11;;;;;;;5.60;0.77;;;6.90;99.90;;;;;;5096165;28;20479;-58
2023/12/30 07:32:37;;;;;;;6.00;0.60;;;7.00;99.90;;;;;;5078329;28;20078;-58
2023/12/30 07:35:05;;;;;;;4.35;1.00;;;7.00;99.90;;;;;;5096114;28;20055;-57
2023/12/30 07:37:32;;;;;;;8.45;0.93;;;6.90;99.90;;;;;;5096116;28;20048;-58
2023/12/30 07:39:58;;;;;;;8.40;1.15;;;6.90;99.90;;;;;;5096076;28;20055;-57
2023/12/30 07:42:23;;;;;;;4.25;0.88;;;6.90;99.90;;;;;;5096067;28;20605;-57
2023/12/30 07:44:51;;;;;;;4.07;1.13;;;6.90;99.90;;;;;;5095953;28;20119;-58
2023/12/30 07:47:17;;;;;;;5.28;0.82;;;6.90;99.90;;;;;;5095708;28;20047;-57
2023/12/30 07:49:43;;;;;;;5.33;1.10;;;6.80;99.90;;;;;;5095950;28;20043;-58
2023/12/30 07:52:08;;;;;;;5.73;0.97;;;6.90;99.90;;;;;;5095690;28;20087;-57
2023/12/30 07:54:34;;;;;;;5.87;0.73;;;6.90;99.90;;;;;;5095553;28;20113;-57
2023/12/30 07:57:00;;;;;;;5.07;0.93;;;6.80;99.90;;;;;;5095909;28;20044;-58
2023/12/30 07:59:25;;;;;;;6.70;0.87;;;6.80;99.90;;;;;;5095667;28;20503;-57
2023/12/30 08:01:51;;;;;;;12.03;1.43;;;6.90;99.90;;;;;;5095743;28;20055;-57
2023/12/30 08:04:17;;;;;;;3.03;0.60;;;6.90;99.90;;;;;;5095487;28;20044;-58
2023/12/30 08:06:42;;;;;;;5.13;1.00;;;6.90;99.90;;;;;;5093151;28;20047;-58
2023/12/30 08:09:11;;;;;;;8.03;1.03;;;6.90;99.90;;;;;;5095329;28;20048;-57
2023/12/30 08:11:36;;;;;;;5.50;1.13;;;6.90;99.90;;;;;;5095358;28;20556;-58
2023/12/30 08:14:02;;;;;;;5.97;1.00;;;6.90;99.90;;;;;;5095248;28;20047;-58
2023/12/30 08:16:28;;;;;;;3.70;0.83;;;6.90;99.90;;;;;;5095210;28;20066;-58
2023/12/30 08:18:54;;;;;;;9.85;1.00;;;6.90;99.90;;;;;;5094516;28;20070;-58
2023/12/30 08:21:20;;;;;;;7.88;1.70;;;6.90;99.90;;;;;;5095106;28;20051;-56
2023/12/30 08:23:45;;;;;;;6.97;1.43;;;6.90;99.90;;;;;;5094061;28;20052;-57
2023/12/30 08:26:11;;;;;;;6.60;0.83;;;6.90;99.90;;;;;;5095190;28;20079;-58
2023/12/30 08:28:37;;;;;;;5.60;1.27;;;6.90;99.90;;;;;;5094716;28;20055;-58
2023/12/30 08:31:03;;;;;;;5.93;1.10;;;6.90;99.90;;;;;;5093999;28;20052;-57
2023/12/30 08:33:28;;;;;;;3.63;1.00;;;6.90;99.90;;;;;;5095064;28;20069;-57
2023/12/30 08:35:54;;;;;;;5.27;1.00;;;6.90;99.90;;;;;;5094758;28;20465;-58
2023/12/30 08:38:20;;;;;;;5.70;0.80;;;7.00;99.90;;;;;;5094639;28;20040;-58
2023/12/30 08:40:45;;;;;;;3.73;0.70;;;7.00;99.90;;;;;;5094891;28;20065;-58
2023/12/30 08:43:12;;;;;;;3.40;0.70;;;7.00;99.90;;;;;;5094807;28;20043;-58
2023/12/30 08:45:38;;;;;;;5.13;1.08;;;7.00;99.90;;;;;;5094784;28;20044;-56
2023/12/30 08:48:04;;;;;;;10.13;1.40;;;7.00;99.90;;;;;;5093744;28;20052;-58
2023/12/30 08:50:31;;;;;;;3.15;0.55;;;7.00;99.90;;;;;;5094616;28;20079;-58
2023/12/30 08:52:56;;;;;;;7.35;1.10;;;7.00;99.90;;;;;;5094488;28;20048;-58
2023/12/30 08:55:22;;;;;;;5.90;0.80;;;7.00;99.90;;;;;;5094756;28;20048;-58
2023/12/30 08:57:48;;;;;;;7.53;1.07;;;7.00;99.90;;;;;;5094689;28;20040;-58
2023/12/30 09:00:15;;;;;;;5.43;0.90;;;7.00;99.90;;;;;;5094668;28;20417;-57
2023/12/30 09:02:46;;;;;;;3.92;1.25;;;7.00;99.90;;;;;;5094549;28;20122;-57
2023/12/30 09:05:19;;;;;;;5.53;0.88;;;7.00;99.90;;;;;;5094250;28;20055;-57
2023/12/30 09:07:49;;;;;;;5.97;1.17;;;7.00;99.90;;;;;;5094307;28;20072;-57
2023/12/30 09:10:17;;;;;;;5.85;0.55;;;7.00;99.90;;;;;;5094695;28;20040;-57
2023/12/30 09:12:44;;;;;;;3.92;0.80;;;7.00;99.90;;;;;;5094226;28;20051;-57
2023/12/30 09:15:09;;;;;;;4.20;0.68;;;7.00;99.90;;;;;;5094540;28;20489;-57
2023/12/30 09:17:35;;;;;;;9.07;0.90;;;7.00;99.90;;;;;;5093983;28;20044;-57
2023/12/30 09:20:01;;;;;;;4.80;0.90;;;7.00;99.90;;;;;;5094095;28;20052;-58
2023/12/30 09:22:27;;;;;;;7.47;1.13;;;7.00;99.90;;;;;;5094589;28;20426;-57
2023/12/30 09:24:53;;;;;;;5.18;0.50;;;7.00;99.90;;;;;;5094115;28;20105;-58
2023/12/30 09:27:21;;;;;;;4.97;0.70;;;7.00;99.90;;;;;;5092871;28;20098;-58
2023/12/30 09:29:47;;;;;;;2.58;0.70;;;7.00;99.90;;;;;;5094015;28;20095;-57
2023/12/30 09:32:13;;;;;;;5.77;0.97;;;7.00;99.90;;;;;;5093961;28;20079;-58
2023/12/30 09:34:38;;;;;;;7.30;0.67;;;7.10;99.90;;;;;;5093681;28;20048;-57
2023/12/30 09:37:04;;;;;;;4.57;0.60;;;7.10;99.90;;;;;;5093925;28;20048;-57
2023/12/30 09:39:30;;;;;;;6.60;0.80;;;7.10;99.90;;;;;;5093978;28;20043;-57
2023/12/30 09:41:56;;;;;;;6.30;0.63;;;7.10;99.90;;;;;;5093791;28;20448;-57
2023/12/30 09:44:23;;;;;;;4.10;0.73;;;7.10;99.90;;;;;;5093786;28;20052;-57
2023/12/30 09:46:50;;;;;;;4.63;0.60;;;7.10;99.90;;;;;;5093649;28;20286;-58
2023/12/30 09:49:16;;;;;;;3.30;0.60;;;7.10;99.90;;;;;;5093696;28;20052;-57
2023/12/30 09:51:42;;;;;;;7.43;1.00;;;7.10;99.90;;;;;;5093763;28;20112;-57
2023/12/30 09:54:10;;;;;;;8.90;1.10;;;7.10;99.90;;;;;;5093506;28;20545;-57
2023/12/30 09:56:36;;;;;;;5.57;1.25;;;7.20;99.90;;;;;;5093736;28;20048;-57
2023/12/30 09:59:03;;;;;;;3.90;0.77;;;7.20;99.90;;;;;;5093526;28;20457;-58
2023/12/30 10:01:30;;;;;;;5.90;0.50;;;7.20;99.90;;;;;;5093425;28;20126;-57
2023/12/30 10:03:56;;;;;;;5.03;0.60;;;7.20;99.90;;;;;;5092437;28;20055;-57
2023/12/30 10:06:23;;;;;;;4.63;0.83;;;7.20;99.90;;;;;;5093613;28;20471;-58
2023/12/30 10:08:49;;;;;;;;;;;7.30;99.90;;;;;;5094023;28;20048;-58
2023/12/30 10:11:15;;;;;;;3.65;0.90;;;7.30;99.90;;;;;;5093516;28;19942;-57
2023/12/30 10:13:41;;;;;;;6.07;0.90;;;7.30;99.90;;;;;;5093659;28;20113;-57
2023/12/30 10:16:08;;;;;;;7.93;0.70;;;7.40;99.90;;;;;;5093823;28;20478;-57
2023/12/30 10:18:37;;;;;;;6.05;0.93;;;7.40;99.90;;;;;;5093585;28;20161;-57
2023/12/30 10:21:04;;;;;;;4.63;0.70;;;7.40;99.90;;;;;;5093531;28;20051;-57
2023/12/30 10:23:31;;;;;;;3.22;0.77;;;7.40;99.90;;;;;;5093445;28;20044;-57
2023/12/30 10:25:57;;;;;;;7.95;1.00;;;7.50;99.90;;;;;;5093687;28;20406;-57
2023/12/30 10:28:23;;;;;;;8.85;0.85;;;7.50;99.90;;;;;;5092678;28;20048;-57
2023/12/30 10:31:03;;;;;;;4.03;0.80;;;7.50;99.90;;;;;;5097298;28;20059;-57
2023/12/30 10:33:29;;;;;;;4.93;0.60;;;7.50;99.90;;;;;;5097620;28;20063;-58
2023/12/30 10:35:56;;;;;;;3.38;0.60;;;7.50;99.90;;;;;;5097395;28;20048;-58
2023/12/30 10:38:23;;;;;;;13.73;1.13;;;7.60;99.90;;;;;;5097646;28;20040;-57
2023/12/30 10:40:50;;;;;;;6.15;0.98;;;7.60;99.90;;;;;;5097221;28;20083;-57
2023/12/30 10:43:20;;;;;;;4.60;1.08;;;7.60;99.90;;;;;;5096848;28;20483;-57
2023/12/30 10:46:00;;;;;;;4.50;0.73;;;7.60;99.90;;;;;;5097087;28;20086;-57
2023/12/30 10:48:32;;;;;;;4.70;0.68;;;7.60;99.90;;;;;;5097012;28;20507;-58
2023/12/30 10:50:59;;;;;;;4.40;0.70;;;7.60;99.90;;;;;;5096948;28;20040;-57
2023/12/30 10:53:44;;;;;;;7.30;0.88;;;7.60;99.90;;;;;;5096999;28;20385;-57
2023/12/30 10:56:11;;;;;;;3.72;0.47;;;7.70;99.90;;;;;;5096935;28;20483;-57
2023/12/30 10:58:40;;;;;;;2.95;0.32;;;7.70;99.90;;;;;;5097047;28;20437;-56
2023/12/30 11:01:06;;;;;;;6.82;0.60;;;7.70;99.90;;;;;;5096844;28;20036;-56
2023/12/30 11:03:34;;;;;;;8.73;1.00;;;7.70;99.90;;;;;;5096674;28;20548;-58
2023/12/30 11:06:22;;;;;;;5.57;0.80;;;7.70;99.90;;;;;;5096591;28;20040;-58
2023/12/30 11:08:51;;;;;;;6.88;0.90;;;7.70;99.90;;;;;;5096593;28;20036;-58
2023/12/30 11:11:19;;;;;;;8.23;1.00;;;7.80;99.90;;;;;;5096427;28;20510;-58
2023/12/30 11:13:46;;;;;;;6.78;1.02;;;7.80;99.90;;;;;;5095783;28;20052;-57
2023/12/30 11:16:15;;;;;;;5.15;0.60;;;7.80;99.90;;;;;;5096316;28;20048;-58
2023/12/30 11:19:03;;;;;;;2.47;0.50;;;7.80;99.90;;;;;;5095529;28;20052;-58
2023/12/30 11:21:46;;;;;;;5.07;0.85;;;7.80;99.90;;;;;;5096893;28;20049;-58
2023/12/30 11:24:20;;;;;;;5.45;0.65;;;7.80;99.90;;;;;;5096365;28;20056;-58
2023/12/30 11:26:47;;;;;;;2.15;0.45;;;7.80;99.90;;;;;;5096255;28;20117;-57
2023/12/30 11:29:13;;;;;;;3.70;0.47;;;7.80;99.90;;;;;;5096393;28;20117;-57
2023/12/30 11:31:44;;;;;;;5.25;0.45;;;7.80;99.90;;;;;;5095479;28;20060;-56
2023/12/30 11:34:11;;;;;;;5.55;0.90;;;7.80;99.90;;;;;;5095901;28;20491;-57
2023/12/30 11:36:37;;;;;;;6.95;0.75;;;7.90;99.90;;;;;;5096238;28;20060;-57
2023/12/30 11:39:03;;;;;;;3.15;0.60;;;7.90;99.90;;;;;;5095934;28;20083;-58
2023/12/30 11:41:31;;;;;;;3.65;0.88;;;7.90;99.90;;;;;;5094837;28;20051;-57
2023/12/30 11:44:03;;;;;;;6.10;0.60;;;7.90;99.90;;;;;;5095791;28;20564;-57
2023/12/30 11:46:30;;;;;;;5.13;0.95;;;7.90;99.90;;;;;;5095980;28;20108;-57
2023/12/30 11:48:58;;;;;;;3.85;0.75;;;8.00;99.90;;;;;;5096035;28;20040;-58
2023/12/30 11:51:26;;;;;;;2.50;0.60;;;7.90;99.90;;;;;;5095717;28;20051;-57
2023/12/30 11:53:52;;;;;;;5.25;0.98;;;8.00;99.90;;;;;;5095682;28;20044;-58
2023/12/30 11:56:21;;;;;;;3.35;0.68;;;7.90;99.90;;;;;;5095567;28;20048;-57
2023/12/30 11:58:48;;;;;;;4.22;0.40;;;8.00;99.90;;;;;;5095428;28;20051;-57
2023/12/30 12:01:14;;;;;;;7.95;0.60;;;8.00;99.90;;;;;;5095721;28;20400;-57
2023/12/30 12:03:40;;;;;;;6.90;0.93;;;8.00;99.90;;;;;;5095549;28;20052;-57
2023/12/30 12:06:07;;;;;;;7.25;0.85;;;8.00;99.90;;;;;;5095536;28;20036;-58
2023/12/30 12:08:32;;;;;;;;;;;8.00;99.90;;;;;;5095730;28;20077;-57
2023/12/30 12:10:59;;;;;;;6.70;0.80;;;8.10;99.90;;;;;;5095386;28;19924;-57
2023/12/30 12:13:26;;;;;;;7.10;0.88;;;8.00;99.90;;;;;;5095308;28;20048;-57
2023/12/30 12:15:54;;;;;;;7.88;1.55;;;8.10;99.90;;;;;;5095209;28;20475;-58
2023/12/30 12:18:21;;;;;;;7.80;0.80;;;8.10;99.90;;;;;;5095147;28;20411;-57
2023/12/30 12:20:47;;;;;;;2.88;0.65;;;8.10;99.90;;;;;;5095338;28;20047;-57
2023/12/30 12:23:13;;;;;;;6.68;1.08;;;8.10;99.90;;;;;;5095115;28;20048;-58
2023/12/30 12:25:42;;;;;;;3.70;0.73;;;8.10;99.90;;;;;;5094965;28;20087;-57
2023/12/30 12:28:12;;;;;;;5.72;0.77;;;8.00;99.90;;;;;;5094855;28;20056;-57
2023/12/30 12:30:38;;;;;;;5.18;1.13;;;8.00;99.90;;;;;;5095262;28;20056;-58
2023/12/30 12:33:05;;;;;;;3.08;0.68;;;8.00;99.90;;;;;;5094959;28;20144;-57
2023/12/30 12:35:30;;;;;;;4.45;1.25;;;7.90;99.90;;;;;;5095009;28;20044;-58
2023/12/30 12:37:59;;;;;;;5.90;1.03;;;7.90;99.90;;;;;;5095007;28;20044;-57
2023/12/30 12:40:25;;;;;;;3.13;0.52;;;7.90;99.90;;;;;;5094557;28;20491;-57
2023/12/30 12:42:51;;;;;;;4.87;0.83;;;7.90;99.90;;;;;;5094826;28;20048;-57
2023/12/30 12:45:17;;;;;;;4.38;0.73;;;7.80;99.90;;;;;;5094851;28;20051;-57
2023/12/30 12:47:43;;;;;;;4.27;0.90;;;7.80;99.90;;;;;;5094667;28;20044;-57
2023/12/30 12:50:09;;;;;;;8.20;1.67;;;7.80;99.90;;;;;;5094704;28;20056;-57
2023/12/30 12:52:34;;;;;;;2.75;0.50;;;7.80;99.90;;;;;;5094026;28;20047;-57
2023/12/30 12:55:01;;;;;;;6.27;1.00;;;7.80;99.90;;;;;;5094364;28;20040;-57